Accueil
METAR-TAF:

METAR-TAF

Aéroports :

Plate-forme pétrolière

K13-a, Pays-Bas

latitude: 53-13-04N, longitude: 3-13-13E, altitude: 31 m

Observation

Le bulletin a été fait il y a 37 minutes, à 03:25 UTC
Vent 10 kt de sud-ouest
Température 6°C
Humidité 61%
Pression 1016 hPa

METAR: EHJR 030325Z AUTO 22010KT //// // ///////// 06/M01 Q1016 RE// W11/H7

Heure: 05:02 (04:02 UTC)


TAF: absent

Observations et prévisions météorologiques de plus de 4000 aéroports (messages METAR et TAF).

Les stations disponibles sont représentées par des disques jaunes et rouges sur la carte.

Passer la souris dessus pour voir le nom de la station.

Cliquer dessus pour voir les observations et prévisions météorologiques.

Pour changer de carte: cliquez sur les boutons verts avec une croix noire pour zoomer, sur le bouton vert avec un tiret pour effectuer un zoom arrière, ou sur les flèches vertes pour les cartes adjacentes.


METAR-TAF: